• Join FlightAware (Why Join?)
  • Login
  • US Flag 
10:57AM EDT


 

Airport Tracker/Info


-or-


 

Live Flight TrackerFlight Track Log ✈ N521LL ✈ 22-Apr-2013 ✈ KLBB - KDZB

Flight Track Log - Related Links

Times and Time Zones

All times are in EDT time to prevent confusion due to time zone crossing. See the N521LL flight status page for this flight to view local times or setup timezone preferences in your user account.

Time Position Orientation Groundspeed Altitude Reporting Facility
EDT Latitude Longitude Course Direction KTS MPH feet Rate Location/Type
05:17PM 33.6342 -101.8317 162° South 152 175 4,200  Level Fort Worth Center
05:18PM 33.5889 -101.8144 162° South 233 268 5,600 1,860 Climbing Fort Worth Center
05:19PM 33.5244 -101.7414 137° Southeast 304 350 7,900 2,040 Climbing Fort Worth Center
05:20PM 33.4625 -101.6611 133° Southeast 316 364 10,300 1,920 Climbing Fort Worth Center
05:21PM 33.4003 -101.5933 138° Southeast 316 364 12,000 1,860 Climbing Fort Worth Center
05:22PM 33.3361 -101.5108 133° Southeast 316 364 14,100 1,860 Climbing Fort Worth Center
05:23PM 33.2697 -101.4333 136° Southeast 329 379 15,800 1,740 Climbing Fort Worth Center
05:24PM 33.1972 -101.3531 137° Southeast 356 410 17,600 1,920 Climbing Fort Worth Center
05:25PM 33.1247 -101.2656 135° Southeast 367 422 19,700 1,800 Climbing Fort Worth Center
05:26PM 33.0542 -101.1906 138° Southeast 372 428 21,200 1,500 Climbing Fort Worth Center
05:27PM 32.9897 -101.1061 132° Southeast 378 435 22,700 1,500 Climbing Fort Worth Center
05:28PM 32.9028 -101.0108 137° Southeast 383 441 24,200 1,380 Climbing Fort Worth Center
05:29PM 32.8219 -100.9186 136° Southeast 389 448 25,500 1,380 Climbing Fort Worth Center
05:30PM 32.7389 -100.8242 136° Southeast 402 463 27,000 1,620 Climbing Fort Worth Center
05:31PM 32.6600 -100.7322 136° Southeast 402 463 28,800 960 Climbing Fort Worth Center
05:32PM 32.5747 -100.6381 137° Southeast 412 474 29,000 60 Climbing Fort Worth Center
05:33PM 32.4875 -100.5364 135° Southeast 425 489 29,000  Level Fort Worth Center
05:34PM 32.3961 -100.4297 135° Southeast 443 510 29,000  Level Fort Worth Center
05:35PM 32.2947 -100.3133 136° Southeast 455 524 29,000  Level Fort Worth Center
05:36PM 32.2031 -100.2072 136° Southeast 460 529 29,000  Level Fort Worth Center
05:37PM 32.1072 -100.1039 138° Southeast 460 529 29,000  Level Fort Worth Center
05:38PM 32.0156 -99.9958 135° Southeast 460 529 29,000 -360 Level Fort Worth Center
05:39PM 31.9194 -99.8928 138° Southeast 465 535 28,300 -1,320 Descending Fort Worth Center
05:40PM 31.8339 -99.7903 134° Southeast 460 529 26,400 -1,920 Descending Fort Worth Center
05:41PM 31.7436 -99.6950 138° Southeast 454 522 24,500 -1,380 Descending Fort Worth Center
05:42PM 31.6578 -99.5978 136° Southeast 438 504 23,700 -1,260 Descending Fort Worth Center
05:44PM 31.5214 -99.4436 136° Southeast 421 484 21,100 -1,560 Descending Houston Center
05:45PM 31.4397 -99.3553 137° Southeast 408 470 19,400 -1,680 Descending Houston Center
05:46PM 31.3597 -99.2644 136° Southeast 403 464 17,700 -1,800 Descending Houston Center
05:47PM 31.2636 -99.1606 137° Southeast 394 453 15,700 -1,740 Descending Houston Center
05:48PM 31.1858 -99.0739 136° Southeast 391 450 14,200 -1,500 Descending Houston Center
05:49PM 31.1097 -98.9903 137° Southeast 384 442 12,700 -1,440 Descending Houston Center
05:50PM 31.0389 -98.9147 138° Southeast 373 429 11,300 -1,440 Descending Houston Center
05:51PM 30.9753 -98.8456 137° Southeast 352 405 9,800 -1,380 Descending Houston Center
05:52PM 30.9203 -98.7844 136° Southeast 323 372 8,500 -1,200 Descending Houston Center
05:53PM 30.8561 -98.7128 136° Southeast 293 337 7,400 -780 Descending Houston Center
05:55PM 30.8019 -98.6567 138° Southeast 277 319 7,000 -420 Descending Houston Center